createdAt,value
2019-05-10T00:01:23.551Z,13.40
2019-05-10T00:04:16.011Z,13.43
2019-05-10T00:07:01.709Z,14.77
2019-05-10T00:09:35.995Z,10.63
2019-05-10T00:12:21.585Z,12.80
2019-05-10T00:15:27.804Z,9.90
2019-05-10T00:17:58.232Z,12.33
2019-05-10T00:20:27.593Z,10.97
2019-05-10T00:22:56.330Z,10.93
2019-05-10T00:25:25.720Z,9.97
2019-05-10T00:27:56.716Z,7.90
2019-05-10T00:30:25.689Z,7.27
2019-05-10T00:32:54.444Z,12.67
2019-05-10T00:35:23.484Z,10.17
2019-05-10T00:37:52.288Z,8.53
2019-05-10T00:40:21.087Z,6.30
2019-05-10T00:42:50.182Z,7.03
2019-05-10T00:45:23.527Z,9.57
2019-05-10T00:47:54.187Z,7.57
2019-05-10T00:50:25.276Z,7.13
2019-05-10T00:52:54.216Z,4.43
2019-05-10T00:55:32.018Z,6.93
2019-05-10T00:58:02.116Z,5.43
2019-05-10T01:00:30.935Z,6.30
2019-05-10T01:02:59.851Z,6.33
2019-05-10T01:05:28.408Z,5.57
2019-05-10T01:07:59.204Z,7.73
2019-05-10T01:10:27.378Z,7.57
2019-05-10T01:12:56.189Z,5.63
2019-05-10T01:15:28.091Z,5.40
2019-05-10T01:18:05.900Z,6.23
2019-05-10T01:20:34.680Z,7.57
2019-05-10T01:23:03.248Z,6.23
2019-05-10T01:25:35.659Z,7.90
2019-05-10T01:28:13.496Z,7.63
2019-05-10T01:30:42.835Z,5.40
2019-05-10T01:33:11.420Z,6.03
2019-05-10T01:35:40.395Z,4.90
2019-05-10T01:38:10.335Z,7.13
2019-05-10T01:40:39.130Z,5.97
2019-05-10T01:43:10.170Z,8.27
2019-05-10T01:45:39.089Z,7.33
2019-05-10T01:48:08.006Z,7.97
2019-05-10T01:50:37.468Z,7.77
2019-05-10T01:53:09.008Z,4.87
2019-05-10T01:55:51.342Z,6.00
2019-05-10T01:58:11.604Z,10.83
2019-05-10T02:00:40.852Z,7.63
2019-05-10T02:03:09.713Z,10.20
2019-05-10T02:05:41.886Z,7.90
2019-05-10T02:08:13.700Z,7.47
2019-05-10T02:10:44.374Z,6.50
2019-05-10T02:13:26.652Z,4.50
2019-05-10T02:16:32.637Z,8.77
2019-05-10T02:21:53.423Z,7.67
2019-05-10T02:24:24.513Z,8.07
2019-05-10T02:26:58.361Z,10.80
2019-05-10T02:29:36.454Z,5.23
2019-05-10T02:32:07.616Z,5.03
2019-05-10T02:34:36.812Z,7.70
2019-05-10T02:37:15.157Z,6.93
2019-05-10T02:39:47.253Z,10.60
2019-05-10T02:42:16.222Z,9.40
2019-05-10T02:44:47.829Z,7.43
2019-05-10T02:47:19.283Z,5.23
2019-05-10T02:49:48.543Z,7.57
2019-05-10T02:52:19.646Z,8.50
2019-05-10T02:54:58.607Z,3.70
2019-05-10T02:57:37.164Z,6.77
2019-05-10T03:00:06.216Z,6.07
2019-05-10T03:02:35.551Z,5.00
2019-05-10T03:05:07.287Z,6.37
2019-05-10T03:07:36.965Z,8.70
2019-05-10T03:10:06.443Z,5.07
2019-05-10T03:12:41.768Z,6.87
2019-05-10T03:15:16.854Z,5.93
2019-05-10T03:17:50.727Z,9.93
2019-05-10T03:20:20.083Z,4.70
2019-05-10T03:22:50.151Z,5.53
2019-05-10T03:28:31.305Z,5.83
2019-05-10T03:31:11.457Z,6.07
2019-05-10T03:33:43.656Z,6.03
2019-05-10T03:36:15.933Z,5.67
2019-05-10T03:41:45.077Z,6.13
2019-05-10T03:44:34.338Z,4.33
2019-05-10T03:50:18.313Z,4.50
2019-05-10T03:53:01.745Z,6.93
2019-05-10T03:55:36.850Z,7.20
2019-05-10T03:59:06.656Z,7.80
2019-05-10T04:02:30.813Z,10.67
2019-05-10T04:11:52.701Z,8.47
2019-05-10T04:14:45.473Z,6.30
2019-05-10T04:17:59.092Z,8.97
2019-05-10T04:20:58.990Z,8.03
2019-05-10T04:24:05.813Z,7.27
2019-05-10T04:27:32.958Z,5.93
2019-05-10T04:37:00.855Z,6.07
2019-05-10T04:39:46.309Z,5.93
2019-05-10T04:42:24.756Z,6.17
2019-05-10T04:45:10.377Z,6.60
2019-05-10T04:51:13.249Z,7.60
2019-05-10T04:54:39.195Z,7.17
2019-05-10T04:57:12.783Z,4.77
2019-05-10T05:00:31.195Z,10.27
2019-05-10T05:03:52.630Z,9.53
2019-05-10T05:07:05.894Z,5.37
2019-05-10T05:16:08.336Z,7.73
2019-05-10T05:22:16.289Z,8.93
2019-05-10T05:25:09.384Z,7.93
2019-05-10T05:27:38.685Z,8.30
2019-05-10T05:36:49.368Z,6.57
2019-05-10T05:39:27.655Z,11.93
2019-05-10T05:41:57.040Z,15.27
2019-05-10T05:44:28.875Z,8.97
2019-05-10T05:46:58.334Z,9.03
2019-05-10T05:49:27.896Z,9.20
2019-05-10T05:52:08.146Z,10.53
2019-05-10T05:58:26.656Z,10.37
2019-05-10T06:01:28.856Z,6.97
2019-05-10T06:04:06.551Z,14.40
2019-05-10T06:07:40.929Z,9.43
2019-05-10T06:10:10.016Z,8.60
2019-05-10T06:12:57.522Z,5.27
2019-05-10T06:15:32.526Z,10.73
2019-05-10T06:18:09.380Z,8.37
2019-05-10T06:20:47.623Z,9.23
2019-05-10T06:23:29.044Z,14.90
2019-05-10T06:25:57.607Z,7.87
2019-05-10T06:28:57.088Z,6.60
2019-05-10T06:31:04.948Z,7.10
2019-05-10T06:33:33.880Z,8.70
2019-05-10T06:36:03.082Z,8.43
2019-05-10T06:38:55.457Z,12.73
2019-05-10T06:41:25.961Z,9.07
2019-05-10T06:43:54.940Z,4.77
2019-05-10T06:46:29.238Z,8.50
2019-05-10T06:48:54.265Z,4.80
2019-05-10T06:51:24.790Z,6.17
2019-05-10T06:53:56.712Z,7.50
2019-05-10T06:56:25.418Z,8.73
2019-05-10T06:58:54.984Z,5.83
2019-05-10T07:01:24.126Z,4.90
2019-05-10T07:03:52.748Z,5.43
2019-05-10T07:06:21.327Z,2.47
2019-05-10T07:08:51.592Z,2.70
2019-05-10T07:11:24.046Z,6.43
2019-05-10T07:14:08.701Z,4.13
2019-05-10T07:16:42.102Z,4.23
2019-05-10T07:19:11.882Z,6.67
2019-05-10T07:21:44.294Z,5.37
2019-05-10T07:24:12.204Z,7.50
2019-05-10T07:26:41.193Z,5.13
2019-05-10T07:29:29.518Z,3.87
2019-05-10T07:31:50.037Z,5.93
2019-05-10T07:34:22.089Z,5.63
2019-05-10T07:36:57.344Z,7.93
2019-05-10T07:39:29.138Z,3.50
2019-05-10T07:42:00.438Z,7.37
2019-05-10T07:44:46.667Z,6.10
2019-05-10T07:47:16.807Z,7.07
2019-05-10T07:49:45.954Z,7.33
2019-05-10T07:52:15.254Z,5.83
2019-05-10T07:54:45.911Z,6.07
2019-05-10T07:57:26.806Z,11.53
2019-05-10T07:59:57.746Z,6.03
2019-05-10T08:02:33.711Z,6.80
2019-05-10T08:05:05.024Z,5.30
2019-05-10T08:08:03.471Z,5.27
2019-05-10T08:10:32.592Z,7.50
2019-05-10T08:13:03.689Z,7.50
2019-05-10T08:15:34.989Z,5.30
2019-05-10T08:18:09.826Z,9.93
2019-05-10T08:20:53.470Z,7.03
2019-05-10T08:23:26.410Z,5.57
2019-05-10T08:26:04.596Z,5.77
2019-05-10T08:28:42.253Z,6.20
2019-05-10T08:31:12.346Z,3.90
2019-05-10T08:33:52.806Z,9.30
2019-05-10T08:36:26.174Z,5.60
2019-05-10T08:39:10.968Z,7.67
2019-05-10T08:42:01.362Z,8.57
2019-05-10T08:44:26.571Z,7.43
2019-05-10T08:47:07.738Z,3.80
2019-05-10T08:50:06.179Z,8.33
2019-05-10T08:52:33.971Z,7.40
2019-05-10T08:55:03.033Z,4.40
2019-05-10T08:57:34.909Z,4.20
2019-05-10T09:00:08.993Z,5.83
2019-05-10T09:02:42.750Z,3.13
2019-05-10T09:05:13.759Z,4.73
2019-05-10T09:07:45.318Z,6.07
2019-05-10T09:10:19.064Z,6.20
2019-05-10T09:12:57.290Z,2.83
2019-05-10T09:15:22.349Z,3.17
2019-05-10T09:17:58.345Z,2.60
2019-05-10T09:20:26.470Z,7.20
2019-05-10T09:22:57.031Z,7.37
2019-05-10T09:25:29.534Z,5.67
2019-05-10T09:27:56.721Z,4.23
2019-05-10T09:30:36.748Z,4.07
2019-05-10T09:33:14.339Z,2.83
2019-05-10T09:35:51.485Z,2.43
2019-05-10T09:38:28.543Z,2.07
2019-05-10T09:41:02.676Z,4.70
2019-05-10T09:43:32.893Z,4.20
2019-05-10T09:46:11.505Z,6.37
2019-05-10T09:48:44.664Z,6.57
2019-05-10T09:51:19.018Z,4.07
2019-05-10T09:53:48.510Z,3.67
2019-05-10T09:56:18.614Z,4.40
2019-05-10T09:58:48.351Z,4.07
2019-05-10T10:01:21.451Z,4.70
2019-05-10T10:03:50.191Z,3.67
2019-05-10T10:06:19.005Z,4.43
2019-05-10T10:08:51.222Z,4.73
2019-05-10T10:11:29.235Z,8.50
2019-05-10T10:13:59.273Z,4.93
2019-05-10T10:16:28.199Z,6.93
2019-05-10T10:18:56.735Z,6.70
2019-05-10T10:21:35.100Z,3.20
2019-05-10T10:24:00.389Z,3.53
2019-05-10T10:26:34.467Z,3.63
2019-05-10T10:29:09.009Z,2.63
2019-05-10T10:31:51.175Z,3.73
2019-05-10T10:34:18.068Z,2.03
2019-05-10T10:36:49.199Z,5.40
2019-05-10T10:39:22.969Z,1.60
2019-05-10T10:41:52.162Z,1.20
2019-05-10T10:44:21.209Z,4.13
2019-05-10T10:46:50.507Z,3.03
2019-05-10T10:49:23.152Z,4.00
2019-05-10T10:51:52.260Z,3.00
2019-05-10T10:54:22.427Z,2.43
2019-05-10T10:56:52.393Z,2.97
2019-05-10T10:59:23.487Z,2.70
2019-05-10T11:02:25.279Z,3.50
2019-05-10T11:04:26.038Z,3.27
2019-05-10T11:07:09.388Z,3.60
2019-05-10T11:09:31.221Z,2.63
2019-05-10T11:12:00.945Z,3.27
2019-05-10T11:14:40.089Z,3.47
2019-05-10T11:17:03.296Z,4.97
2019-05-10T11:19:31.905Z,3.10
2019-05-10T11:22:02.254Z,4.03
2019-05-10T11:24:31.187Z,4.37
2019-05-10T11:27:01.092Z,3.17
2019-05-10T11:29:35.840Z,7.10
2019-05-10T11:32:15.283Z,5.50
2019-05-10T11:34:38.838Z,1.70
2019-05-10T11:37:06.957Z,3.47
2019-05-10T11:39:41.942Z,3.27
2019-05-10T11:42:07.348Z,3.53
2019-05-10T11:44:41.547Z,5.67
2019-05-10T11:47:22.891Z,4.47
2019-05-10T11:49:43.299Z,2.47
2019-05-10T11:52:13.257Z,2.93
2019-05-10T11:54:41.944Z,4.53
2019-05-10T11:59:43.660Z,5.07
2019-05-10T12:02:33.779Z,4.87
2019-05-10T12:04:43.831Z,5.27
2019-05-10T12:07:13.006Z,3.57
2019-05-10T12:09:42.521Z,2.97
2019-05-10T12:12:12.253Z,2.23
2019-05-10T12:14:43.640Z,5.40
2019-05-10T12:17:15.848Z,4.93
2019-05-10T12:19:50.480Z,4.47
2019-05-10T12:22:17.337Z,2.97
2019-05-10T12:25:11.405Z,5.57
2019-05-10T12:26:18.917Z,3.20
2019-05-10T12:27:28.549Z,2.93
2019-05-10T12:29:55.556Z,4.77
2019-05-10T12:32:21.321Z,4.63
2019-05-10T12:34:52.037Z,5.10
2019-05-10T12:37:20.247Z,5.43
2019-05-10T12:39:53.208Z,5.17
2019-05-10T12:42:23.678Z,4.80
2019-05-10T12:44:55.450Z,3.00
2019-05-10T12:47:21.876Z,2.20
2019-05-10T12:49:53.948Z,3.70
2019-05-10T12:52:43.203Z,2.83
2019-05-10T12:55:13.169Z,2.43
2019-05-10T12:57:43.685Z,2.70
2019-05-10T13:00:13.596Z,2.90
2019-05-10T13:02:51.316Z,1.30
2019-05-10T13:05:15.978Z,2.20
2019-05-10T13:07:46.798Z,3.07
2019-05-10T13:10:15.545Z,3.63
2019-05-10T13:12:47.671Z,4.07
2019-05-10T13:15:15.775Z,1.67
2019-05-10T13:17:50.181Z,3.67
2019-05-10T13:20:14.411Z,3.37
2019-05-10T13:22:42.836Z,3.77
2019-05-10T13:25:11.372Z,5.50
2019-05-10T13:27:39.935Z,4.17
2019-05-10T13:30:13.142Z,4.80
2019-05-10T13:32:43.558Z,5.40
2019-05-10T13:35:12.228Z,3.73
2019-05-10T13:37:40.754Z,4.53
2019-05-10T13:40:09.300Z,2.17
2019-05-10T13:42:43.148Z,5.80
2019-05-10T13:45:09.533Z,3.80
2019-05-10T13:47:38.400Z,3.27
2019-05-10T13:50:07.248Z,2.47
2019-05-10T13:57:06.448Z,3.37
2019-05-10T14:23:34.961Z,4.10
2019-05-10T14:34:14.092Z,2.07
2019-05-10T15:05:18.106Z,2.87
2019-05-10T15:07:58.141Z,2.13
2019-05-10T15:10:27.196Z,2.17
2019-05-10T15:13:04.058Z,6.57
2019-05-10T15:15:37.328Z,1.77
2019-05-10T15:18:10.907Z,4.03
2019-05-10T15:20:39.490Z,3.83
2019-05-10T15:23:08.154Z,2.53
2019-05-10T15:25:36.716Z,4.87
2019-05-10T15:28:05.308Z,5.10
2019-05-10T15:30:39.311Z,3.50
2019-05-10T15:33:07.060Z,4.23
2019-05-10T15:36:16.722Z,1.53
2019-05-10T15:38:30.618Z,2.27
2019-05-10T15:41:04.541Z,2.17
2019-05-10T15:43:35.355Z,2.00
2019-05-10T15:46:08.109Z,3.73
2019-05-10T15:48:41.706Z,3.23
2019-05-10T15:51:11.121Z,4.20
2019-05-10T15:53:42.137Z,5.37
2019-05-10T15:56:18.959Z,5.87
2019-05-10T16:02:00.697Z,4.47
2019-05-10T16:04:25.080Z,6.50
2019-05-10T16:07:28.787Z,6.37
2019-05-10T16:09:57.222Z,7.07
2019-05-10T16:12:25.674Z,10.43
2019-05-10T16:14:54.300Z,11.10
2019-05-10T16:17:23.998Z,12.30
2019-05-10T16:19:59.657Z,13.40
2019-05-10T16:22:29.743Z,9.57
2019-05-10T16:24:52.973Z,10.43
2019-05-10T16:27:21.379Z,6.90
2019-05-10T16:29:49.751Z,10.37
2019-05-10T16:32:18.228Z,12.70
2019-05-10T16:34:46.668Z,14.40
2019-05-10T16:37:15.256Z,10.53
2019-05-10T16:39:43.692Z,19.23
2019-05-10T16:42:13.604Z,9.70
2019-05-10T16:44:42.325Z,6.03
2019-05-10T16:47:10.725Z,9.77
2019-05-10T16:49:39.123Z,5.43
2019-05-10T16:52:07.658Z,4.57
2019-05-10T16:54:36.122Z,4.30
2019-05-10T16:57:04.451Z,8.30
2019-05-10T16:59:35.193Z,6.80
2019-05-10T17:02:06.253Z,4.33
2019-05-10T17:04:37.543Z,4.70
2019-05-10T17:07:03.112Z,2.47
2019-05-10T17:09:31.450Z,5.47
2019-05-10T17:11:59.867Z,5.70
2019-05-10T17:14:28.306Z,5.07
2019-05-10T17:16:58.864Z,5.47
2019-05-10T17:19:27.992Z,3.43
2019-05-10T17:22:01.331Z,4.00
2019-05-10T17:24:29.678Z,3.43
2019-05-10T17:26:58.164Z,7.43
2019-05-10T17:29:26.845Z,4.13
2019-05-10T17:31:55.263Z,6.43
2019-05-10T17:34:29.334Z,5.53
2019-05-10T17:36:57.980Z,3.60
2019-05-10T17:39:26.048Z,4.10
2019-05-10T17:41:57.696Z,4.90
2019-05-10T17:44:24.848Z,5.03
2019-05-10T17:46:55.573Z,5.57
2019-05-10T17:49:23.748Z,4.43
2019-05-10T17:51:52.293Z,5.03
2019-05-10T17:54:28.009Z,7.30
2019-05-10T17:56:56.593Z,5.73
2019-05-10T17:59:27.852Z,4.30
2019-05-10T18:01:56.766Z,6.97
2019-05-10T18:04:40.864Z,4.80
2019-05-10T18:11:06.350Z,3.97
2019-05-10T18:13:35.616Z,6.00
2019-05-10T18:16:09.385Z,5.03
2019-05-10T18:18:46.427Z,3.90
2019-05-10T18:21:06.556Z,4.43
2019-05-10T18:23:35.131Z,5.27
2019-05-10T18:26:03.800Z,7.23
2019-05-10T18:28:32.321Z,4.50
2019-05-10T18:31:00.868Z,7.10
2019-05-10T18:33:29.263Z,10.57
2019-05-10T18:35:57.710Z,9.13
2019-05-10T18:38:30.819Z,6.40
2019-05-10T18:40:56.367Z,6.33
2019-05-10T18:43:24.789Z,7.47
2019-05-10T18:45:53.208Z,5.83
2019-05-10T18:48:21.794Z,6.70
2019-05-10T18:50:50.207Z,5.13
2019-05-10T18:53:18.717Z,7.10
2019-05-10T18:55:47.268Z,8.47
2019-05-10T18:58:15.954Z,7.13
2019-05-10T19:00:44.861Z,8.27
2019-05-10T19:03:13.588Z,9.37
2019-05-10T19:05:42.251Z,4.23
2019-05-10T19:08:13.742Z,6.50
2019-05-10T19:10:42.363Z,4.70
2019-05-10T19:13:11.421Z,7.03
2019-05-10T19:15:40.434Z,8.23
2019-05-10T19:18:09.158Z,7.93
2019-05-10T19:20:38.027Z,7.33
2019-05-10T19:23:13.132Z,6.23
2019-05-10T19:25:39.364Z,6.37
2019-05-10T19:28:08.157Z,6.77
2019-05-10T19:30:36.800Z,8.53
2019-05-10T19:33:12.555Z,6.97
2019-05-10T19:35:47.248Z,8.63
2019-05-10T19:38:17.096Z,7.13
2019-05-10T19:40:49.426Z,7.70
2019-05-10T19:43:21.598Z,8.83
2019-05-10T19:47:32.264Z,6.70
2019-05-10T19:48:19.052Z,9.53
2019-05-10T19:50:47.795Z,11.83
2019-05-10T19:53:16.397Z,9.33
2019-05-10T19:55:44.800Z,6.93
2019-05-10T19:58:13.339Z,6.87
2019-05-10T20:00:42.117Z,5.53
2019-05-10T20:03:12.021Z,6.73
2019-05-10T20:05:40.715Z,6.70
2019-05-10T20:08:12.353Z,5.30
2019-05-10T20:10:41.072Z,9.90
2019-05-10T20:13:13.278Z,7.37
2019-05-10T20:15:41.784Z,7.93
2019-05-10T20:18:16.151Z,9.80
2019-05-10T20:20:44.854Z,8.27
2019-05-10T20:23:13.398Z,6.30
2019-05-10T20:25:43.675Z,9.17
2019-05-10T20:28:12.470Z,9.73
2019-05-10T20:30:40.975Z,9.10
2019-05-10T20:33:09.842Z,12.70
2019-05-10T20:35:47.517Z,10.00
2019-05-10T20:38:18.527Z,9.70
2019-05-10T20:40:55.947Z,9.73
2019-05-10T20:43:24.691Z,7.23
2019-05-10T20:45:53.173Z,12.83
2019-05-10T20:48:26.343Z,9.87
2019-05-10T20:50:55.138Z,10.30
2019-05-10T20:53:24.124Z,11.70
2019-05-10T20:55:52.798Z,7.87
2019-05-10T20:58:21.552Z,10.37
2019-05-10T21:00:50.316Z,13.70
2019-05-10T21:03:19.930Z,14.47
2019-05-10T21:05:48.510Z,8.07
2019-05-10T21:11:32.791Z,10.50
2019-05-10T21:14:33.424Z,13.70
2019-05-10T21:17:07.268Z,7.70
2019-05-10T21:19:44.768Z,7.40
2019-05-10T21:22:16.508Z,9.50
2019-05-10T21:25:00.420Z,7.53
2019-05-10T21:28:08.232Z,10.53
2019-05-10T21:30:54.942Z,8.80
2019-05-10T21:33:25.581Z,8.17
2019-05-10T21:35:57.409Z,13.43
2019-05-10T21:38:33.365Z,8.10
2019-05-10T21:41:04.694Z,8.00
2019-05-10T21:43:40.430Z,13.43
2019-05-10T21:46:15.154Z,7.70
2019-05-10T21:48:45.157Z,11.13
2019-05-10T21:51:13.672Z,11.03
2019-05-10T21:53:45.798Z,10.67
2019-05-10T21:56:14.437Z,11.67
2019-05-10T21:58:43.126Z,11.37
2019-05-10T22:01:12.246Z,8.23
2019-05-10T22:03:40.974Z,8.80
2019-05-10T22:06:11.163Z,8.70
2019-05-10T22:08:48.910Z,7.53
2019-05-10T22:11:10.327Z,8.53
2019-05-10T22:13:38.875Z,8.40
2019-05-10T22:16:07.509Z,6.77
2019-05-10T22:18:38.909Z,9.27
2019-05-10T22:21:07.424Z,10.50
2019-05-10T22:23:35.909Z,9.63
2019-05-10T22:26:05.317Z,6.63
2019-05-10T22:28:41.680Z,6.70
2019-05-10T22:31:13.947Z,11.70
2019-05-10T22:33:46.046Z,14.63
2019-05-10T22:36:14.521Z,14.20
2019-05-10T22:38:43.829Z,13.80
2019-05-10T22:41:48.045Z,16.23
2019-05-10T22:44:34.108Z,11.50
2019-05-10T22:47:16.554Z,9.60
2019-05-10T22:50:03.353Z,10.10
2019-05-10T23:25:59.544Z,9.27
2019-05-10T23:29:21.269Z,6.30
2019-05-10T23:35:37.363Z,9.47
2019-05-10T23:38:39.252Z,11.57
2019-05-10T23:41:48.082Z,9.37
2019-05-10T23:47:22.934Z,8.13
2019-05-10T23:50:04.556Z,10.30
2019-05-10T23:55:48.974Z,8.90
2019-05-10T23:58:59.375Z,8.67
